createdAt,value
2019-03-27T00:02:18.543Z,5.61
2019-03-27T00:04:49.865Z,5.62
2019-03-27T00:07:21.001Z,5.65
2019-03-27T00:09:51.962Z,5.59
2019-03-27T00:12:23.006Z,5.65
2019-03-27T00:14:54.155Z,5.63
2019-03-27T00:17:25.188Z,5.65
2019-03-27T00:19:56.233Z,5.60
2019-03-27T00:22:27.316Z,5.62
2019-03-27T00:24:58.519Z,5.65
2019-03-27T00:27:29.689Z,5.62
2019-03-27T00:30:00.812Z,5.60
2019-03-27T00:32:31.955Z,5.64
2019-03-27T00:35:03.077Z,5.60
2019-03-27T00:37:34.182Z,5.64
2019-03-27T00:40:05.742Z,5.62
2019-03-27T00:42:36.949Z,5.60
2019-03-27T00:45:09.278Z,5.66
2019-03-27T00:47:40.466Z,5.62
2019-03-27T00:50:11.968Z,5.58
2019-03-27T00:52:43.076Z,5.63
2019-03-27T00:55:15.995Z,5.60
2019-03-27T00:57:47.225Z,5.71
2019-03-27T01:00:28.096Z,5.64
2019-03-27T01:02:59.360Z,5.59
2019-03-27T01:05:30.490Z,5.56
2019-03-27T01:08:01.618Z,5.68
2019-03-27T01:10:32.785Z,5.57
2019-03-27T01:13:04.005Z,5.56
2019-03-27T01:15:40.147Z,5.64
2019-03-27T01:18:07.927Z,5.63
2019-03-27T01:20:39.089Z,5.66
2019-03-27T01:23:10.199Z,5.61
2019-03-27T01:25:41.287Z,5.60
2019-03-27T01:28:12.402Z,5.53
2019-03-27T01:30:43.528Z,5.56
2019-03-27T01:33:14.676Z,5.58
2019-03-27T01:35:45.700Z,5.50
2019-03-27T01:38:16.714Z,5.54
2019-03-27T01:40:47.851Z,5.50
2019-03-27T01:43:18.952Z,5.50
2019-03-27T01:45:53.194Z,5.45
2019-03-27T01:48:23.031Z,5.48
2019-03-27T01:50:54.244Z,5.49
2019-03-27T01:53:25.354Z,5.45
2019-03-27T01:55:59.335Z,5.50
2019-03-27T01:58:30.441Z,5.47
2019-03-27T02:01:01.846Z,5.45
2019-03-27T02:03:32.947Z,5.48
2019-03-27T02:06:04.064Z,5.55
2019-03-27T02:08:35.162Z,5.37
2019-03-27T02:11:06.361Z,5.46
2019-03-27T02:13:37.580Z,5.53
2019-03-27T02:16:08.692Z,5.53
2019-03-27T02:18:39.731Z,5.46
2019-03-27T02:21:10.942Z,5.54
2019-03-27T02:23:42.143Z,5.49
2019-03-27T02:26:13.276Z,5.43
2019-03-27T02:28:44.402Z,5.41
2019-03-27T02:31:15.698Z,5.43
2019-03-27T02:33:46.879Z,5.45
2019-03-27T02:36:17.934Z,5.43
2019-03-27T02:38:49.127Z,5.49
2019-03-27T02:41:20.228Z,5.56
2019-03-27T02:43:51.248Z,5.54
2019-03-27T02:46:24.895Z,5.52
2019-03-27T02:48:55.241Z,5.46
2019-03-27T02:51:26.314Z,5.45
2019-03-27T02:53:57.343Z,5.43
2019-03-27T02:56:28.590Z,5.42
2019-03-27T02:58:59.677Z,5.46
2019-03-27T03:01:31.728Z,5.42
2019-03-27T03:04:02.855Z,5.44
2019-03-27T03:06:33.924Z,5.45
2019-03-27T03:09:06.419Z,5.41
2019-03-27T03:11:37.641Z,5.41
2019-03-27T03:14:08.826Z,5.37
2019-03-27T03:16:42.780Z,5.39
2019-03-27T03:19:12.807Z,5.36
2019-03-27T03:21:44.022Z,5.39
2019-03-27T03:24:15.197Z,5.36
2019-03-27T03:26:50.630Z,5.30
2019-03-27T03:29:19.171Z,5.27
2019-03-27T03:31:50.153Z,5.24
2019-03-27T03:34:21.290Z,5.25
2019-03-27T03:36:52.522Z,5.30
2019-03-27T03:39:26.659Z,5.31
2019-03-27T03:41:57.782Z,5.27
2019-03-27T03:44:29.068Z,5.22
2019-03-27T03:47:00.714Z,5.30
2019-03-27T03:49:31.874Z,5.25
2019-03-27T03:52:04.001Z,5.25
2019-03-27T03:54:35.175Z,5.25
2019-03-27T03:57:07.139Z,5.23
2019-03-27T03:59:40.255Z,5.25
2019-03-27T04:02:12.388Z,5.25
2019-03-27T04:04:45.797Z,5.27
2019-03-27T04:07:16.851Z,5.23
2019-03-27T04:09:47.877Z,5.23
2019-03-27T04:12:19.079Z,5.24
2019-03-27T04:14:50.028Z,5.22
2019-03-27T04:17:21.144Z,5.18
2019-03-27T04:19:52.268Z,5.11
2019-03-27T04:22:23.371Z,5.10
2019-03-27T04:24:54.368Z,5.09
2019-03-27T04:27:25.525Z,5.11
2019-03-27T04:29:56.608Z,5.14
2019-03-27T04:32:27.723Z,5.17
2019-03-27T04:34:58.737Z,5.12
2019-03-27T04:37:30.006Z,5.09
2019-03-27T04:40:01.275Z,5.15
2019-03-27T04:42:32.436Z,5.16
2019-03-27T04:45:03.511Z,5.17
2019-03-27T04:47:34.541Z,5.13
2019-03-27T04:50:06.396Z,5.04
2019-03-27T04:52:37.540Z,5.11
2019-03-27T04:55:09.195Z,5.12
2019-03-27T04:57:40.194Z,5.19
2019-03-27T05:00:12.096Z,5.13
2019-03-27T05:02:43.241Z,5.13
2019-03-27T05:05:15.064Z,5.14
2019-03-27T05:07:46.113Z,5.13
2019-03-27T05:10:17.330Z,5.19
2019-03-27T05:12:50.240Z,5.13
2019-03-27T05:15:21.445Z,5.09
2019-03-27T05:17:52.538Z,5.12
2019-03-27T05:20:23.728Z,5.11
2019-03-27T05:22:54.712Z,5.13
2019-03-27T05:25:25.761Z,5.11
2019-03-27T05:27:56.844Z,5.14
2019-03-27T05:30:30.561Z,5.08
2019-03-27T05:33:02.167Z,5.13
2019-03-27T05:35:33.344Z,5.13
2019-03-27T05:38:04.450Z,5.22
2019-03-27T05:40:35.674Z,5.28
2019-03-27T05:43:06.862Z,5.24
2019-03-27T05:45:38.193Z,5.19
2019-03-27T05:48:09.412Z,5.24
2019-03-27T05:50:40.472Z,5.30
2019-03-27T05:53:11.528Z,5.34
2019-03-27T05:55:42.729Z,5.26
2019-03-27T05:58:13.768Z,5.38
2019-03-27T06:00:45.080Z,5.44
2019-03-27T06:03:16.216Z,5.52
2019-03-27T06:05:47.364Z,5.53
2019-03-27T06:08:18.550Z,5.48
2019-03-27T06:10:49.823Z,5.51
2019-03-27T06:13:20.968Z,5.59
2019-03-27T06:15:52.092Z,5.64
2019-03-27T06:18:23.882Z,5.80
2019-03-27T06:20:55.440Z,5.72
2019-03-27T06:23:26.526Z,5.83
2019-03-27T06:25:57.886Z,5.79
2019-03-27T06:28:30.930Z,6.03
2019-03-27T06:31:01.868Z,6.01
2019-03-27T06:33:32.887Z,6.13
2019-03-27T06:36:04.190Z,6.12
2019-03-27T06:38:35.354Z,6.07
2019-03-27T06:41:06.550Z,6.17
2019-03-27T06:43:37.787Z,6.23
2019-03-27T06:46:08.969Z,6.19
2019-03-27T06:48:40.129Z,6.20
2019-03-27T06:51:11.427Z,6.14
2019-03-27T06:53:42.469Z,6.30
2019-03-27T06:56:13.645Z,6.57
2019-03-27T06:58:54.408Z,6.32
2019-03-27T07:01:17.360Z,6.69
2019-03-27T07:03:48.533Z,6.94
2019-03-27T07:06:19.669Z,6.97
2019-03-27T07:08:50.712Z,6.98
2019-03-27T07:11:21.953Z,6.83
2019-03-27T07:13:52.926Z,6.94
2019-03-27T07:16:24.141Z,7.31
2019-03-27T07:18:55.267Z,7.40
2019-03-27T07:21:26.471Z,7.08
2019-03-27T07:23:57.559Z,7.40
2019-03-27T07:26:28.620Z,7.23
2019-03-27T07:28:59.826Z,7.22
2019-03-27T07:31:31.029Z,7.29
2019-03-27T07:34:02.328Z,7.06
2019-03-27T07:36:33.440Z,7.40
2019-03-27T07:39:11.316Z,7.14
2019-03-27T07:41:38.826Z,7.48
2019-03-27T07:44:09.984Z,7.57
2019-03-27T07:46:41.240Z,7.69
2019-03-27T07:49:12.219Z,7.54
2019-03-27T07:51:43.258Z,7.58
2019-03-27T07:54:14.363Z,7.76
2019-03-27T07:56:45.602Z,7.84
2019-03-27T07:59:16.583Z,7.64
2019-03-27T08:01:47.813Z,7.56
2019-03-27T08:04:18.957Z,7.80
2019-03-27T08:06:50.371Z,7.71
2019-03-27T08:09:23.045Z,7.98
2019-03-27T08:11:54.294Z,7.97
2019-03-27T08:14:25.439Z,7.62
2019-03-27T08:16:56.602Z,7.79
2019-03-27T08:19:27.792Z,7.71
2019-03-27T08:21:58.873Z,7.81
2019-03-27T08:24:30.062Z,7.73
2019-03-27T08:27:01.240Z,7.74
2019-03-27T08:29:32.276Z,8.17
2019-03-27T08:32:03.435Z,8.20
2019-03-27T08:34:34.594Z,8.11
2019-03-27T08:37:05.849Z,8.11
2019-03-27T08:39:36.873Z,8.45
2019-03-27T08:42:07.942Z,8.43
2019-03-27T08:44:39.145Z,8.73
2019-03-27T08:47:10.255Z,8.34
2019-03-27T08:49:41.356Z,8.44
2019-03-27T08:52:12.672Z,8.48
2019-03-27T08:54:43.749Z,8.96
2019-03-27T08:57:14.873Z,9.43
2019-03-27T08:59:46.062Z,9.76
2019-03-27T09:02:17.323Z,9.57
2019-03-27T09:04:48.513Z,9.28
2019-03-27T09:07:19.688Z,9.31
2019-03-27T09:09:50.800Z,9.48
2019-03-27T09:12:22.021Z,9.65
2019-03-27T09:14:52.983Z,9.15
2019-03-27T09:17:24.228Z,9.05
2019-03-27T09:19:55.397Z,9.84
2019-03-27T09:22:26.539Z,9.87
2019-03-27T09:24:57.578Z,9.35
2019-03-27T09:27:28.850Z,9.05
2019-03-27T09:30:00.202Z,8.90
2019-03-27T09:32:31.481Z,9.56
2019-03-27T09:35:02.628Z,10.52
2019-03-27T09:37:33.927Z,10.60
2019-03-27T09:40:05.349Z,10.29
2019-03-27T09:42:36.476Z,10.37
2019-03-27T09:45:08.955Z,12.05
2019-03-27T09:47:40.172Z,10.82
2019-03-27T09:50:11.932Z,10.23
2019-03-27T09:52:43.182Z,9.92
2019-03-27T09:55:16.317Z,9.48
2019-03-27T09:57:47.484Z,9.26
2019-03-27T10:00:29.795Z,9.34
2019-03-27T10:03:02.125Z,9.25
2019-03-27T10:05:33.093Z,9.19
2019-03-27T10:08:04.352Z,10.28
2019-03-27T10:10:35.473Z,10.29
2019-03-27T10:13:06.844Z,10.15
2019-03-27T10:15:38.161Z,9.32
2019-03-27T10:18:09.395Z,9.47
2019-03-27T10:20:40.689Z,10.10
2019-03-27T10:23:12.014Z,10.60
2019-03-27T10:25:43.342Z,10.71
2019-03-27T10:28:14.510Z,10.53
2019-03-27T10:30:45.707Z,10.77
2019-03-27T10:33:16.936Z,11.41
2019-03-27T10:35:48.237Z,11.25
2019-03-27T10:38:19.549Z,11.12
2019-03-27T10:40:50.690Z,12.15
2019-03-27T10:43:21.979Z,12.01
2019-03-27T10:45:53.364Z,11.74
2019-03-27T10:48:24.637Z,11.16
2019-03-27T10:50:55.871Z,11.97
2019-03-27T10:53:27.032Z,12.10
2019-03-27T10:55:58.214Z,12.39
2019-03-27T10:58:29.418Z,11.20
2019-03-27T11:01:00.732Z,11.03
2019-03-27T11:03:31.873Z,10.97
2019-03-27T11:06:03.159Z,10.94
2019-03-27T11:08:34.414Z,10.89
2019-03-27T11:11:05.981Z,10.99
2019-03-27T11:13:37.149Z,11.01
2019-03-27T11:16:08.594Z,10.74
2019-03-27T11:18:39.839Z,10.44
2019-03-27T11:21:10.987Z,10.58
2019-03-27T11:23:42.195Z,10.72
2019-03-27T11:26:13.536Z,10.51
2019-03-27T11:28:44.675Z,10.45
2019-03-27T11:31:15.860Z,10.75
2019-03-27T11:33:47.181Z,10.80
2019-03-27T11:36:18.478Z,10.68
2019-03-27T11:38:49.610Z,10.71
2019-03-27T11:41:21.481Z,11.95
2019-03-27T11:43:55.097Z,12.49
2019-03-27T11:46:25.488Z,12.53
2019-03-27T11:48:56.730Z,12.48
2019-03-27T11:51:27.942Z,11.71
2019-03-27T11:53:59.013Z,11.49
2019-03-27T11:56:30.211Z,11.27
2019-03-27T11:59:01.622Z,10.57
2019-03-27T12:01:39.620Z,10.62
2019-03-27T12:04:06.003Z,10.50
2019-03-27T12:06:37.298Z,10.46
2019-03-27T12:09:09.478Z,10.39
2019-03-27T12:11:40.581Z,10.15
2019-03-27T12:14:12.457Z,10.23
2019-03-27T12:16:43.585Z,10.23
2019-03-27T12:19:14.742Z,10.23
2019-03-27T12:21:45.886Z,9.97
2019-03-27T12:24:17.160Z,10.61
2019-03-27T12:26:48.261Z,11.07
2019-03-27T12:29:19.473Z,11.03
2019-03-27T12:31:50.613Z,11.34
2019-03-27T12:34:22.049Z,11.36
2019-03-27T12:36:53.276Z,11.53
2019-03-27T12:39:24.727Z,11.55
2019-03-27T12:41:55.892Z,10.96
2019-03-27T12:44:26.895Z,11.58
2019-03-27T12:46:58.174Z,11.75
2019-03-27T12:49:29.506Z,11.42
2019-03-27T12:52:00.968Z,11.35
2019-03-27T12:54:32.310Z,11.23
2019-03-27T12:57:03.393Z,11.48
2019-03-27T12:59:34.637Z,11.49
2019-03-27T13:02:06.787Z,11.87
2019-03-27T13:04:37.904Z,11.71
2019-03-27T13:07:09.118Z,11.77
2019-03-27T13:09:40.189Z,12.06
2019-03-27T13:12:11.503Z,12.23
2019-03-27T13:14:42.714Z,11.94
2019-03-27T13:17:14.086Z,11.87
2019-03-27T13:19:45.183Z,12.32
2019-03-27T13:22:16.178Z,12.64
2019-03-27T13:24:47.381Z,12.66
2019-03-27T13:27:18.522Z,12.28
2019-03-27T13:29:49.773Z,12.00
2019-03-27T13:32:20.998Z,11.88
2019-03-27T13:34:52.349Z,12.39
2019-03-27T13:37:23.760Z,12.36
2019-03-27T13:39:54.821Z,12.43
2019-03-27T13:42:26.239Z,12.11
2019-03-27T13:44:57.747Z,11.62
2019-03-27T13:47:28.860Z,11.53
2019-03-27T13:50:00.148Z,11.61
2019-03-27T13:52:31.370Z,11.51
2019-03-27T13:55:02.425Z,11.30
2019-03-27T13:57:33.718Z,11.40
2019-03-27T14:00:08.846Z,11.25
2019-03-27T14:02:40.170Z,11.23
2019-03-27T14:05:11.685Z,11.15
2019-03-27T14:07:42.909Z,11.87
2019-03-27T14:10:14.454Z,12.15
2019-03-27T14:12:45.694Z,12.46
2019-03-27T14:15:17.696Z,12.56
2019-03-27T14:17:50.029Z,12.52
2019-03-27T14:20:22.349Z,12.56
2019-03-27T14:22:54.543Z,12.92
2019-03-27T14:25:27.602Z,12.54
2019-03-27T14:27:59.134Z,11.96
2019-03-27T14:30:57.943Z,11.46
2019-03-27T14:33:29.219Z,11.26
2019-03-27T14:36:00.472Z,11.15
2019-03-27T14:38:31.705Z,10.89
2019-03-27T14:41:02.952Z,10.80
2019-03-27T14:43:34.220Z,10.75
2019-03-27T14:46:05.537Z,10.80
2019-03-27T14:48:36.694Z,10.74
2019-03-27T14:51:07.975Z,11.05
2019-03-27T14:53:39.175Z,11.76
2019-03-27T14:56:10.479Z,11.96
2019-03-27T14:58:41.474Z,12.09
2019-03-27T15:01:12.635Z,12.41
2019-03-27T15:03:43.843Z,12.42
2019-03-27T15:06:14.992Z,12.46
2019-03-27T15:08:46.030Z,13.03
2019-03-27T15:11:17.251Z,13.14
2019-03-27T15:13:48.369Z,13.18
2019-03-27T15:16:19.592Z,12.66
2019-03-27T15:18:52.553Z,13.01
2019-03-27T15:21:24.014Z,12.61
2019-03-27T15:23:55.250Z,11.84
2019-03-27T15:26:26.649Z,11.82
2019-03-27T15:28:57.916Z,11.69
2019-03-27T15:31:29.558Z,11.68
2019-03-27T15:34:00.751Z,11.53
2019-03-27T15:36:31.982Z,11.36
2019-03-27T15:39:04.793Z,11.36
2019-03-27T15:41:35.975Z,11.27
2019-03-27T15:44:07.221Z,11.20
2019-03-27T15:46:38.424Z,11.29
2019-03-27T15:49:09.508Z,11.25
2019-03-27T15:51:40.796Z,11.45
2019-03-27T15:54:11.971Z,11.46
2019-03-27T15:56:43.285Z,11.54
2019-03-27T15:59:14.430Z,11.57
2019-03-27T16:01:45.730Z,11.44
2019-03-27T16:04:16.905Z,11.32
2019-03-27T16:06:48.180Z,11.16
2019-03-27T16:09:20.802Z,11.21
2019-03-27T16:11:51.882Z,11.09
2019-03-27T16:14:23.195Z,11.13
2019-03-27T16:17:12.076Z,11.20
2019-03-27T16:19:29.039Z,11.06
2019-03-27T16:22:00.329Z,11.05
2019-03-27T16:24:31.690Z,10.87
2019-03-27T16:27:04.662Z,10.75
2019-03-27T16:29:35.939Z,10.87
2019-03-27T16:32:07.567Z,10.78
2019-03-27T16:34:39.024Z,10.68
2019-03-27T16:37:10.296Z,10.56
2019-03-27T16:39:41.495Z,10.66
2019-03-27T16:42:12.953Z,10.55
2019-03-27T16:44:44.408Z,10.50
2019-03-27T16:47:15.691Z,10.43
2019-03-27T16:49:46.965Z,10.53
2019-03-27T16:52:18.358Z,10.43
2019-03-27T16:54:49.700Z,10.48
2019-03-27T16:57:20.953Z,10.41
2019-03-27T16:59:52.202Z,10.33
2019-03-27T17:02:23.463Z,10.29
2019-03-27T17:04:54.699Z,10.29
2019-03-27T17:07:25.882Z,10.32
2019-03-27T17:09:57.035Z,10.20
2019-03-27T17:12:31.345Z,10.26
2019-03-27T17:15:01.490Z,10.19
2019-03-27T17:17:34.105Z,10.14
2019-03-27T17:20:06.542Z,10.18
2019-03-27T17:22:37.833Z,10.12
2019-03-27T17:25:09.925Z,10.12
2019-03-27T17:27:41.196Z,10.12
2019-03-27T17:30:13.299Z,10.03
2019-03-27T17:32:44.592Z,9.97
2019-03-27T17:35:15.782Z,9.85
2019-03-27T17:37:47.099Z,9.78
2019-03-27T17:40:18.479Z,9.68
2019-03-27T17:42:49.835Z,9.65
2019-03-27T17:45:21.059Z,9.63
2019-03-27T17:47:52.254Z,9.58
2019-03-27T17:50:23.562Z,9.51
2019-03-27T17:52:54.733Z,9.49
2019-03-27T17:55:26.010Z,9.33
2019-03-27T17:57:57.247Z,9.35
2019-03-27T18:00:56.183Z,9.27
2019-03-27T18:03:27.467Z,9.34
2019-03-27T18:05:58.730Z,9.23
2019-03-27T18:08:30.249Z,9.13
2019-03-27T18:11:01.613Z,9.19
2019-03-27T18:13:33.000Z,9.04
2019-03-27T18:16:04.184Z,9.11
2019-03-27T18:18:35.629Z,9.12
2019-03-27T18:21:06.977Z,9.10
2019-03-27T18:23:45.689Z,9.22
2019-03-27T18:26:11.165Z,9.11
2019-03-27T18:28:43.837Z,9.10
2019-03-27T18:31:15.059Z,9.08
2019-03-27T18:33:46.373Z,9.03
2019-03-27T18:36:17.665Z,9.02
2019-03-27T18:38:48.911Z,8.93
2019-03-27T18:41:20.260Z,8.86
2019-03-27T18:43:51.580Z,8.83
2019-03-27T18:46:22.956Z,8.90
2019-03-27T18:48:54.108Z,8.87
2019-03-27T18:51:25.315Z,8.81
2019-03-27T18:53:59.825Z,8.91
2019-03-27T18:56:29.845Z,8.79
2019-03-27T18:59:01.036Z,8.62
2019-03-27T19:01:32.414Z,8.68
2019-03-27T19:04:03.770Z,8.70
2019-03-27T19:06:35.055Z,8.61
2019-03-27T19:09:09.138Z,8.47
2019-03-27T19:11:40.932Z,8.35
2019-03-27T19:14:12.480Z,8.31
2019-03-27T19:16:43.855Z,8.18
2019-03-27T19:19:15.093Z,8.14
2019-03-27T19:21:46.447Z,8.12
2019-03-27T19:24:17.523Z,8.08
2019-03-27T19:26:48.918Z,8.01
2019-03-27T19:29:20.052Z,7.99
2019-03-27T19:31:51.387Z,7.96
2019-03-27T19:34:22.632Z,7.91
2019-03-27T19:36:53.923Z,7.94
2019-03-27T19:39:26.159Z,7.89
2019-03-27T19:41:57.332Z,7.93
2019-03-27T19:44:28.806Z,7.89
2019-03-27T19:47:00.058Z,7.88
2019-03-27T19:49:31.478Z,7.88
2019-03-27T19:52:02.949Z,7.80
2019-03-27T19:54:34.061Z,7.69
2019-03-27T19:57:05.286Z,7.52
2019-03-27T19:59:36.667Z,7.41
2019-03-27T20:02:08.013Z,7.36
2019-03-27T20:04:40.850Z,7.28
2019-03-27T20:07:11.961Z,7.24
2019-03-27T20:09:43.524Z,7.21
2019-03-27T20:12:14.892Z,7.14
2019-03-27T20:14:46.249Z,7.05
2019-03-27T20:17:17.476Z,7.05
2019-03-27T20:19:48.670Z,7.05
2019-03-27T20:22:20.052Z,6.86
2019-03-27T20:24:51.318Z,6.67
2019-03-27T20:27:22.552Z,6.68
2019-03-27T20:29:53.672Z,6.73
2019-03-27T20:32:27.380Z,6.71
2019-03-27T20:34:58.644Z,6.66
2019-03-27T20:37:30.012Z,6.48
2019-03-27T20:40:01.373Z,6.41
2019-03-27T20:42:32.485Z,6.30
2019-03-27T20:45:03.982Z,6.12
2019-03-27T20:47:35.066Z,5.90
2019-03-27T20:50:07.276Z,5.87
2019-03-27T20:52:38.341Z,5.69
2019-03-27T20:55:09.876Z,5.55
2019-03-27T20:57:41.097Z,5.38
2019-03-27T21:03:22.856Z,5.40
2019-03-27T21:05:54.553Z,5.42
2019-03-27T21:08:25.897Z,5.35
2019-03-27T21:10:57.168Z,5.36
2019-03-27T21:13:28.426Z,5.31
2019-03-27T21:16:00.186Z,5.14
2019-03-27T21:18:31.347Z,5.01
2019-03-27T21:21:03.005Z,4.99
2019-03-27T21:23:34.268Z,4.86
2019-03-27T21:26:05.541Z,4.80
2019-03-27T21:28:36.808Z,4.89
2019-03-27T21:31:08.012Z,4.83
2019-03-27T21:33:39.325Z,4.74
2019-03-27T21:36:10.359Z,4.65
2019-03-27T21:38:41.936Z,4.75
2019-03-27T21:41:13.464Z,4.53
2019-03-27T21:43:45.999Z,4.46
2019-03-27T21:46:17.252Z,4.53
2019-03-27T21:48:49.187Z,4.42
2019-03-27T21:51:20.360Z,4.24
2019-03-27T21:53:51.610Z,4.33
2019-03-27T21:56:23.993Z,4.42
2019-03-27T21:58:55.277Z,4.42
2019-03-27T22:01:26.647Z,4.41
2019-03-27T22:03:57.743Z,4.30
2019-03-27T22:06:28.877Z,4.33
2019-03-27T22:08:59.913Z,4.17
2019-03-27T22:11:31.160Z,3.97
2019-03-27T22:14:02.354Z,3.91
2019-03-27T22:16:33.452Z,3.87
2019-03-27T22:19:04.719Z,3.76
2019-03-27T22:21:36.170Z,3.73
2019-03-27T22:24:07.419Z,3.76
2019-03-27T22:26:38.511Z,3.63
2019-03-27T22:29:09.774Z,3.64
2019-03-27T22:31:41.072Z,3.65
2019-03-27T22:34:12.284Z,3.77
2019-03-27T22:36:43.350Z,3.63
2019-03-27T22:39:14.463Z,3.54
2019-03-27T22:41:45.469Z,3.63
2019-03-27T22:44:16.680Z,3.69
2019-03-27T22:46:47.889Z,3.66
2019-03-27T22:49:18.743Z,3.61
2019-03-27T22:51:49.902Z,3.35
2019-03-27T22:54:21.109Z,3.16
2019-03-27T22:56:52.205Z,3.06
2019-03-27T22:59:23.307Z,3.00
2019-03-27T23:01:54.478Z,3.09
2019-03-27T23:04:25.729Z,3.38
2019-03-27T23:06:56.975Z,3.48
2019-03-27T23:09:28.216Z,3.34
2019-03-27T23:11:59.412Z,3.37
2019-03-27T23:14:30.444Z,3.27
2019-03-27T23:17:01.620Z,3.14
2019-03-27T23:19:32.800Z,3.12
2019-03-27T23:22:03.864Z,3.11
2019-03-27T23:24:35.108Z,3.15
2019-03-27T23:27:06.358Z,2.98
2019-03-27T23:29:37.412Z,2.89
2019-03-27T23:32:08.584Z,2.94
2019-03-27T23:34:39.710Z,2.95
2019-03-27T23:37:10.913Z,2.83
2019-03-27T23:39:41.952Z,2.63
2019-03-27T23:42:12.944Z,2.41
2019-03-27T23:44:44.154Z,2.42
2019-03-27T23:47:15.445Z,2.46
2019-03-27T23:49:46.549Z,2.54
2019-03-27T23:52:17.670Z,2.59
2019-03-27T23:54:48.802Z,2.67
2019-03-27T23:57:19.935Z,2.50
2019-03-27T23:59:51.081Z,2.67
